Time;durP1;ratioP1;P1;durP2;ratioP2;P2;SDS_P1;SDS_P2;PMS_P1;PMS_P2;Temp;Humidity;BMP_temperature;BMP_pressure;BME280_temperature;BME280_humidity;BME280_pressure;Samples;Min_cycle;Max_cycle;Signal;HPM_P1;HPM_P2
2022/03/11 00:00:26;;;;;;;;;43.67;39.67;;;;;;;;5019470;28;11521;-79
2022/03/11 00:02:55;;;;;;;;;38.00;26.00;;;;;;;;5020193;28;8854;-79
2022/03/11 00:05:25;;;;;;;;;37.67;34.00;;;;;;;;5021582;28;11590;-80
2022/03/11 00:07:52;;;;;;;;;31.33;22.00;;;;;;;;5025318;28;11600;-79
2022/03/11 00:10:20;;;;;;;;;34.33;31.67;;;;;;;;5027630;28;8906;-80
2022/03/11 00:12:47;;;;;;;;;46.00;37.00;;;;;;;;5029051;28;11572;-80
2022/03/11 00:15:14;;;;;;;;;43.67;40.00;;;;;;;;5021023;28;12362;-80
2022/03/11 00:17:42;;;;;;;;;34.67;31.00;;;;;;;;5021591;28;11527;-80
2022/03/11 00:20:12;;;;;;;;;21.33;21.33;;;;;;;;5016510;28;11547;-79
2022/03/11 00:22:39;;;;;;;;;33.00;29.00;;;;;;;;5010415;28;11589;-78
2022/03/11 00:25:09;;;;;;;;;32.33;28.33;;;;;;;;5024465;28;11531;-79
2022/03/11 00:27:37;;;;;;;;;32.00;28.67;;;;;;;;5029024;28;11521;-79
2022/03/11 00:30:05;;;;;;;;;29.33;28.00;;;;;;;;5003445;28;11570;-79
2022/03/11 00:32:32;;;;;;;;;31.00;29.00;;;;;;;;5021387;28;11693;-79
2022/03/11 00:34:59;;;;;;;;;38.00;28.33;;;;;;;;5021949;28;11530;-79
2022/03/11 00:37:29;;;;;;;;;30.67;29.33;;;;;;;;5019712;28;11650;-78
2022/03/11 00:39:56;;;;;;;;;28.00;22.33;;;;;;;;5021944;28;11602;-79
2022/03/11 00:42:24;;;;;;;;;35.33;29.00;;;;;;;;5021235;28;11536;-79
2022/03/11 00:44:51;;;;;;;;;38.00;32.00;;;;;;;;5023090;28;12098;-79
2022/03/11 00:47:18;;;;;;;;;29.67;29.67;;;;;;;;5020150;28;11521;-80
2022/03/11 00:49:46;;;;;;;;;26.00;23.67;;;;;;;;5004658;28;11548;-79
2022/03/11 00:52:14;;;;;;;;;26.00;24.00;;;;;;;;5026370;28;11497;-79
2022/03/11 00:54:42;;;;;;;;;33.67;27.67;;;;;;;;5023843;28;11520;-80
2022/03/11 00:57:10;;;;;;;;;41.00;28.67;;;;;;;;5023799;28;11579;-80
2022/03/11 00:59:37;;;;;;;;;36.33;32.67;;;;;;;;5021836;28;11561;-79
2022/03/11 01:02:05;;;;;;;;;34.67;31.67;;;;;;;;5022278;28;11534;-80
2022/03/11 01:04:32;;;;;;;;;34.67;30.33;;;;;;;;5021369;28;11518;-81
2022/03/11 01:06:59;;;;;;;;;34.67;32.33;;;;;;;;5019455;28;12347;-79
2022/03/11 01:09:26;;;;;;;;;27.33;25.67;;;;;;;;5020491;28;11547;-80
2022/03/11 01:11:55;;;;;;;;;35.00;31.33;;;;;;;;5020668;28;11621;-80
2022/03/11 01:14:22;;;;;;;;;32.33;27.00;;;;;;;;5021749;28;11510;-79
2022/03/11 01:16:49;;;;;;;;;27.67;25.00;;;;;;;;5019175;28;11529;-79
2022/03/11 01:19:17;;;;;;;;;32.67;32.67;;;;;;;;5019674;28;11547;-79
2022/03/11 01:21:44;;;;;;;;;28.00;28.00;;;;;;;;5019943;28;11527;-79
2022/03/11 01:24:12;;;;;;;;;24.33;22.33;;;;;;;;5029008;28;11550;-80
2022/03/11 01:26:39;;;;;;;;;24.33;24.33;;;;;;;;5020654;28;12778;-80
2022/03/11 01:29:08;;;;;;;;;26.00;23.75;;;;;;;;5019651;28;11510;-79
2022/03/11 01:31:35;;;;;;;;;30.00;28.00;;;;;;;;5035911;28;11474;-79
2022/03/11 01:34:03;;;;;;;;;42.00;32.33;;;;;;;;5021788;28;11501;-80
2022/03/11 01:36:30;;;;;;;;;35.67;33.00;;;;;;;;5022713;28;11538;-79
2022/03/11 01:38:57;;;;;;;;;24.00;24.00;;;;;;;;5037392;28;11522;-79
2022/03/11 01:41:25;;;;;;;;;29.33;26.33;;;;;;;;5025175;28;11498;-80
2022/03/11 01:43:54;;;;;;;;;25.67;19.67;;;;;;;;5017183;28;8858;-79
2022/03/11 01:46:35;;;;;;;;;27.00;23.00;;;;;;;;5023464;28;11610;-81
2022/03/11 01:49:05;;;;;;;;;35.33;26.33;;;;;;;;5023653;28;11561;-79
2022/03/11 01:51:34;;;;;;;;;32.00;32.00;;;;;;;;5027257;28;11566;-79
2022/03/11 01:54:01;;;;;;;;;28.33;27.00;;;;;;;;5023634;28;11573;-79
2022/03/11 01:56:29;;;;;;;;;25.67;24.00;;;;;;;;5022653;28;11543;-80
2022/03/11 01:58:57;;;;;;;;;27.33;26.00;;;;;;;;5024795;28;11565;-80
2022/03/11 02:01:26;;;;;;;;;34.00;30.67;;;;;;;;5023182;28;11486;-81
2022/03/11 02:03:54;;;;;;;;;34.67;30.00;;;;;;;;5023383;28;11528;-80
2022/03/11 02:06:21;;;;;;;;;37.67;31.00;;;;;;;;5023447;28;8862;-79
2022/03/11 02:08:49;;;;;;;;;37.00;32.00;;;;;;;;5023005;28;11689;-80
2022/03/11 02:11:16;;;;;;;;;39.67;36.00;;;;;;;;5004389;28;12347;-80
2022/03/11 02:13:45;;;;;;;;;39.67;33.33;;;;;;;;5023303;28;11522;-81
2022/03/11 02:16:15;;;;;;;;;29.00;29.00;;;;;;;;5025117;28;8971;-79
2022/03/11 02:18:43;;;;;;;;;38.67;28.33;;;;;;;;5023058;28;11578;-79
2022/03/11 02:21:11;;;;;;;;;39.00;35.00;;;;;;;;5026017;28;10179;-80
2022/03/11 02:23:44;;;;;;;;;32.00;25.00;;;;;;;;5023936;28;11529;-79
2022/03/11 02:26:11;;;;;;;;;35.00;29.33;;;;;;;;5022854;28;11591;-79
2022/03/11 02:28:39;;;;;;;;;39.00;33.33;;;;;;;;5023329;28;8980;-81
2022/03/11 02:31:07;;;;;;;;;29.00;23.33;;;;;;;;5015194;28;11500;-78
2022/03/11 02:33:34;;;;;;;;;33.67;33.33;;;;;;;;5032605;28;11511;-78
2022/03/11 02:36:01;;;;;;;;;29.50;28.75;;;;;;;;5021794;28;11517;-82
2022/03/11 02:38:29;;;;;;;;;30.50;28.75;;;;;;;;5023653;28;11525;-79
2022/03/11 02:40:58;;;;;;;;;26.00;22.50;;;;;;;;5021802;28;12433;-80
2022/03/11 02:43:25;;;;;;;;;36.75;36.25;;;;;;;;5022292;28;11520;-81
2022/03/11 02:45:53;;;;;;;;;32.50;27.75;;;;;;;;5000885;28;11541;-81
2022/03/11 02:48:21;;;;;;;;;37.25;31.25;;;;;;;;5017225;28;11543;-81
2022/03/11 02:50:49;;;;;;;;;25.50;22.00;;;;;;;;5022883;28;11511;-79
2022/03/11 02:53:16;;;;;;;;;41.50;28.75;;;;;;;;5021850;28;11660;-80
2022/03/11 02:55:44;;;;;;;;;34.50;30.75;;;;;;;;5023881;28;11559;-79
2022/03/11 02:58:13;;;;;;;;;38.50;32.25;;;;;;;;5022893;28;11551;-79
2022/03/11 03:00:40;;;;;;;;;39.25;33.25;;;;;;;;5020988;28;11472;-79
2022/03/11 03:03:07;;;;;;;;;42.75;33.00;;;;;;;;5021951;28;11512;-79
2022/03/11 03:05:35;;;;;;;;;32.50;26.75;;;;;;;;5020537;28;11523;-80
2022/03/11 03:08:02;;;;;;;;;40.50;32.00;;;;;;;;5026586;28;11544;-80
2022/03/11 03:10:30;;;;;;;;;29.75;28.75;;;;;;;;5023080;28;11550;-79
2022/03/11 03:12:57;;;;;;;;;28.75;24.50;;;;;;;;5024045;28;12532;-79
2022/03/11 03:15:26;;;;;;;;;33.25;29.00;;;;;;;;5022244;28;11636;-79
2022/03/11 03:17:54;;;;;;;;;32.25;31.25;;;;;;;;5022886;28;11533;-79
2022/03/11 03:20:21;;;;;;;;;34.50;25.50;;;;;;;;5022015;28;11527;-79
2022/03/11 03:22:48;;;;;;;;;38.75;32.75;;;;;;;;5020645;28;11660;-79
2022/03/11 03:25:16;;;;;;;;;29.25;25.50;;;;;;;;5023224;28;11509;-79
2022/03/11 03:27:43;;;;;;;;;28.50;24.50;;;;;;;;5021455;28;12424;-80
2022/03/11 03:30:12;;;;;;;;;28.25;27.00;;;;;;;;5003934;28;11559;-79
2022/03/11 03:32:43;;;;;;;;;29.00;26.75;;;;;;;;5021137;28;11538;-79
2022/03/11 03:35:11;;;;;;;;;23.75;21.25;;;;;;;;5021689;28;11599;-79
2022/03/11 03:37:38;;;;;;;;;28.75;27.50;;;;;;;;5023350;28;11554;-79
2022/03/11 03:40:07;;;;;;;;;26.75;24.75;;;;;;;;5021508;28;11646;-79
2022/03/11 03:42:35;;;;;;;;;27.75;25.00;;;;;;;;5022686;28;11521;-80
2022/03/11 03:45:02;;;;;;;;;19.00;17.25;;;;;;;;5021730;28;11522;-80
2022/03/11 03:47:30;;;;;;;;;23.75;22.25;;;;;;;;5020750;28;11492;-79
2022/03/11 03:49:58;;;;;;;;;23.25;20.75;;;;;;;;5021516;28;11644;-79
2022/03/11 03:52:27;;;;;;;;;17.00;17.00;;;;;;;;5021437;28;11547;-78
2022/03/11 03:54:55;;;;;;;;;24.00;23.75;;;;;;;;5022015;28;11573;-80
2022/03/11 03:57:22;;;;;;;;;24.00;17.75;;;;;;;;5022507;28;12134;-80
2022/03/11 03:59:49;;;;;;;;;20.75;20.00;;;;;;;;5020676;28;11476;-79
2022/03/11 04:02:17;;;;;;;;;19.50;19.00;;;;;;;;5019012;28;11515;-79
2022/03/11 04:04:44;;;;;;;;;23.25;20.25;;;;;;;;5037209;28;11530;-80
2022/03/11 04:07:13;;;;;;;;;25.50;20.00;;;;;;;;5019754;28;11473;-79
2022/03/11 04:09:40;;;;;;;;;23.50;18.50;;;;;;;;5022216;28;12205;-78
2022/03/11 04:12:09;;;;;;;;;11.50;11.50;;;;;;;;5021336;28;11584;-78
2022/03/11 04:14:36;;;;;;;;;20.50;20.00;;;;;;;;5020970;28;11565;-79
2022/03/11 04:17:04;;;;;;;;;21.75;20.75;;;;;;;;5029756;28;12328;-79
2022/03/11 04:19:31;;;;;;;;;18.00;14.25;;;;;;;;5017437;28;11472;-79
2022/03/11 04:21:59;;;;;;;;;23.25;22.25;;;;;;;;5021495;28;11445;-78
2022/03/11 04:24:28;;;;;;;;;16.25;16.25;;;;;;;;5020877;28;11572;-79
2022/03/11 04:26:56;;;;;;;;;22.75;18.50;;;;;;;;5021156;28;11472;-79
2022/03/11 04:29:26;;;;;;;;;23.50;21.00;;;;;;;;5002897;28;11476;-78
2022/03/11 04:31:54;;;;;;;;;22.00;19.25;;;;;;;;5001551;28;11563;-78
2022/03/11 04:34:25;;;;;;;;;19.75;19.50;;;;;;;;5034391;28;12124;-78
2022/03/11 04:36:53;;;;;;;;;20.50;20.50;;;;;;;;5019148;28;11528;-79
2022/03/11 04:39:21;;;;;;;;;16.75;16.50;;;;;;;;5021449;28;11458;-80
2022/03/11 04:41:50;;;;;;;;;17.75;17.75;;;;;;;;5019638;28;11525;-79
2022/03/11 04:44:17;;;;;;;;;17.50;16.75;;;;;;;;5021401;28;11510;-79
2022/03/11 04:46:45;;;;;;;;;22.25;16.50;;;;;;;;5020087;28;11420;-79
2022/03/11 04:49:12;;;;;;;;;18.25;15.00;;;;;;;;5020400;28;11447;-80
2022/03/11 04:51:39;;;;;;;;;20.00;17.25;;;;;;;;5003437;28;11437;-80
2022/03/11 04:54:07;;;;;;;;;21.75;18.75;;;;;;;;5020359;28;11457;-79
2022/03/11 04:56:37;;;;;;;;;16.50;16.00;;;;;;;;5022270;28;11495;-79
2022/03/11 04:59:06;;;;;;;;;13.75;11.50;;;;;;;;5019314;28;12468;-79
2022/03/11 05:01:33;;;;;;;;;19.00;15.00;;;;;;;;5019443;28;11386;-80
2022/03/11 05:04:01;;;;;;;;;9.75;8.25;;;;;;;;5018367;28;11490;-78
2022/03/11 05:06:29;;;;;;;;;15.00;15.00;;;;;;;;5019724;28;11545;-80
2022/03/11 05:08:56;;;;;;;;;17.75;15.25;;;;;;;;5030075;28;11578;-78
2022/03/11 05:11:26;;;;;;;;;18.00;15.00;;;;;;;;5019037;28;11459;-78
2022/03/11 05:13:53;;;;;;;;;18.50;18.50;;;;;;;;5021547;28;11462;-79
2022/03/11 05:16:22;;;;;;;;;19.00;17.00;;;;;;;;5028164;28;11485;-78
2022/03/11 05:18:53;;;;;;;;;16.75;16.00;;;;;;;;5021094;28;12234;-78
2022/03/11 05:21:20;;;;;;;;;15.50;14.00;;;;;;;;5012400;28;11467;-77
2022/03/11 05:23:48;;;;;;;;;17.75;15.00;;;;;;;;5020220;28;11460;-77
2022/03/11 05:26:25;;;;;;;;;20.00;15.75;;;;;;;;5020820;28;11602;-78
2022/03/11 05:28:55;;;;;;;;;12.00;12.00;;;;;;;;5019219;28;11456;-77
2022/03/11 05:31:24;;;;;;;;;18.25;16.75;;;;;;;;5023365;28;11411;-78
2022/03/11 05:33:51;;;;;;;;;15.00;15.00;;;;;;;;5019908;28;11631;-77
2022/03/11 05:36:19;;;;;;;;;29.25;24.00;;;;;;;;5020406;28;11584;-77
2022/03/11 05:38:46;;;;;;;;;21.75;18.00;;;;;;;;5021982;28;11736;-77
2022/03/11 05:41:13;;;;;;;;;17.25;13.75;;;;;;;;5005702;28;11522;-77
2022/03/11 05:43:41;;;;;;;;;12.25;12.25;;;;;;;;5022683;28;13182;-78
2022/03/11 05:46:09;;;;;;;;;18.75;16.50;;;;;;;;5003672;28;11564;-77
2022/03/11 05:48:37;;;;;;;;;19.00;15.00;;;;;;;;5022731;28;11454;-78
2022/03/11 05:51:04;;;;;;;;;15.00;15.00;;;;;;;;5021876;28;11756;-77
2022/03/11 05:53:32;;;;;;;;;15.25;14.00;;;;;;;;5022881;28;12368;-77
2022/03/11 05:55:59;;;;;;;;;14.75;14.75;;;;;;;;5023167;28;11465;-78
2022/03/11 05:58:27;;;;;;;;;18.75;16.00;;;;;;;;5023104;28;11643;-78
2022/03/11 06:00:54;;;;;;;;;16.00;13.75;;;;;;;;5024021;28;11838;-79
2022/03/11 06:03:21;;;;;;;;;13.75;11.75;;;;;;;;5024428;28;11472;-78
2022/03/11 06:05:51;;;;;;;;;15.75;13.25;;;;;;;;5024724;28;11420;-78
2022/03/11 06:08:19;;;;;;;;;11.50;11.50;;;;;;;;5021048;28;11545;-79
2022/03/11 06:10:47;;;;;;;;;12.00;10.50;;;;;;;;5010305;28;11547;-78
2022/03/11 06:13:15;;;;;;;;;10.50;10.50;;;;;;;;5024295;28;11518;-78
2022/03/11 06:15:42;;;;;;;;;19.00;15.25;;;;;;;;5021986;28;11547;-79
2022/03/11 06:18:13;;;;;;;;;16.00;14.25;;;;;;;;5023570;28;11456;-77
2022/03/11 06:20:40;;;;;;;;;20.25;15.75;;;;;;;;5017016;28;11572;-79
2022/03/11 06:23:09;;;;;;;;;15.50;12.25;;;;;;;;5003970;28;11503;-84
2022/03/11 06:25:36;;;;;;;;;15.75;14.25;;;;;;;;5023335;28;11472;-84
2022/03/11 06:28:04;;;;;;;;;10.00;10.00;;;;;;;;5024647;28;11523;-80
2022/03/11 06:30:31;;;;;;;;;14.75;14.75;;;;;;;;5022640;28;11391;-81
2022/03/11 06:32:59;;;;;;;;;10.25;10.25;;;;;;;;5024448;28;11465;-83
2022/03/11 06:35:26;;;;;;;;;12.75;12.50;;;;;;;;5022373;28;11697;-82
2022/03/11 06:37:56;;;;;;;;;13.25;10.50;;;;;;;;5023800;28;11452;-83
2022/03/11 06:40:24;;;;;;;;;13.75;12.75;;;;;;;;5023277;28;11417;-84
2022/03/11 06:42:53;;;;;;;;;14.75;14.00;;;;;;;;5004558;28;11463;-82
2022/03/11 06:45:21;;;;;;;;;10.25;8.75;;;;;;;;5022150;28;11440;-82
2022/03/11 06:47:49;;;;;;;;;12.75;9.50;;;;;;;;5022833;28;11507;-82
2022/03/11 06:50:18;;;;;;;;;11.75;9.75;;;;;;;;5024491;28;11469;-85
2022/03/11 06:52:45;;;;;;;;;14.50;10.25;;;;;;;;5024628;28;11562;-85
2022/03/11 06:55:13;;;;;;;;;13.25;13.25;;;;;;;;5027234;28;11431;-85
2022/03/11 06:57:45;;;;;;;;;10.50;9.00;;;;;;;;5022998;28;11630;-84
2022/03/11 07:00:14;;;;;;;;;14.25;11.25;;;;;;;;5022320;28;11569;-84
2022/03/11 07:02:44;;;;;;;;;10.00;10.00;;;;;;;;5023318;28;11419;-82
2022/03/11 07:05:12;;;;;;;;;6.75;2.25;;;;;;;;5028386;28;12191;-83
2022/03/11 07:07:40;;;;;;;;;14.75;10.25;;;;;;;;5025532;28;11436;-83
2022/03/11 07:10:10;;;;;;;;;14.50;11.25;;;;;;;;5007173;28;11413;-83
2022/03/11 07:12:38;;;;;;;;;9.75;9.75;;;;;;;;5027070;28;11495;-85
2022/03/11 07:15:08;;;;;;;;;12.50;9.50;;;;;;;;5024720;28;11428;-84
2022/03/11 07:17:36;;;;;;;;;9.50;9.50;;;;;;;;4999799;28;11423;-84
2022/03/11 07:20:05;;;;;;;;;10.75;10.75;;;;;;;;5023519;28;11499;-82
2022/03/11 07:22:35;;;;;;;;;11.25;11.25;;;;;;;;5022228;28;11522;-83
2022/03/11 07:25:03;;;;;;;;;11.50;10.25;;;;;;;;5023109;28;11498;-83
2022/03/11 07:27:30;;;;;;;;;10.00;8.00;;;;;;;;5023649;28;11535;-83
2022/03/11 07:29:58;;;;;;;;;11.00;11.00;;;;;;;;5005472;28;11582;-82
2022/03/11 07:32:27;;;;;;;;;12.75;12.75;;;;;;;;5019797;28;11422;-83
2022/03/11 07:34:54;;;;;;;;;9.50;6.00;;;;;;;;5022643;28;11445;-85
2022/03/11 07:37:22;;;;;;;;;10.00;8.50;;;;;;;;5022593;28;11413;-84
2022/03/11 07:39:49;;;;;;;;;10.75;10.75;;;;;;;;5022288;28;11465;-81
2022/03/11 07:42:17;;;;;;;;;10.75;10.75;;;;;;;;5023576;28;11513;-82
2022/03/11 07:44:44;;;;;;;;;11.00;11.00;;;;;;;;5005027;28;11400;-83
2022/03/11 07:47:12;;;;;;;;;11.75;10.00;;;;;;;;5022685;28;11161;-82
2022/03/11 07:49:43;;;;;;;;;8.50;8.25;;;;;;;;5022398;28;11217;-82
2022/03/11 07:52:15;;;;;;;;;13.75;11.50;;;;;;;;5011601;28;11082;-83
2022/03/11 07:54:42;;;;;;;;;9.75;9.75;;;;;;;;5028366;28;11201;-84
2022/03/11 07:57:12;;;;;;;;;7.75;7.75;;;;;;;;5035756;28;11064;-83
2022/03/11 07:59:40;;;;;;;;;12.75;10.50;;;;;;;;5023754;28;11027;-83
2022/03/11 08:02:08;;;;;;;;;8.50;8.50;;;;;;;;5024598;28;10996;-83
2022/03/11 08:04:36;;;;;;;;;12.75;10.75;;;;;;;;5023556;28;10991;-84
2022/03/11 08:07:09;;;;;;;;;11.25;9.25;;;;;;;;5028023;28;10946;-83
2022/03/11 08:09:38;;;;;;;;;9.25;9.25;;;;;;;;5025017;28;10941;-77
2022/03/11 08:12:06;;;;;;;;;12.25;10.50;;;;;;;;5028763;28;11993;-76
2022/03/11 08:14:35;;;;;;;;;13.00;10.75;;;;;;;;5023381;28;10966;-76
2022/03/11 08:17:03;;;;;;;;;12.00;11.00;;;;;;;;5019639;28;10986;-76
2022/03/11 08:19:31;;;;;;;;;11.25;11.25;;;;;;;;5000467;28;10850;-76
2022/03/11 08:21:58;;;;;;;;;9.00;9.00;;;;;;;;5020531;28;10847;-76
2022/03/11 08:24:27;;;;;;;;;8.00;8.00;;;;;;;;5020496;28;10783;-76
2022/03/11 08:26:54;;;;;;;;;8.00;8.00;;;;;;;;5018355;28;10595;-77
2022/03/11 08:29:23;;;;;;;;;8.75;8.75;;;;;;;;5004411;28;10628;-78
2022/03/11 08:31:50;;;;;;;;;6.25;6.00;;;;;;;;5005495;28;11413;-76
2022/03/11 08:34:18;;;;;;;;;9.00;9.00;;;;;;;;5023522;28;10534;-77
2022/03/11 08:36:45;;;;;;;;;9.75;7.75;;;;;;;;5020817;28;10628;-76
2022/03/11 08:39:12;;;;;;;;;7.00;7.00;;;;;;;;5026175;28;10540;-76
2022/03/11 08:41:41;;;;;;;;;7.25;7.25;;;;;;;;5021909;28;10537;-77
2022/03/11 08:44:08;;;;;;;;;8.00;8.00;;;;;;;;5023661;28;10545;-77
2022/03/11 08:46:38;;;;;;;;;7.50;7.00;;;;;;;;5031353;28;10324;-78
2022/03/11 08:49:06;;;;;;;;;10.00;7.00;;;;;;;;5022493;28;10283;-79
2022/03/11 08:51:34;;;;;;;;;9.50;8.75;;;;;;;;5021735;28;10314;-78
2022/03/11 08:54:02;;;;;;;;;8.25;7.00;;;;;;;;5021713;28;10344;-78
2022/03/11 08:56:29;;;;;;;;;7.00;7.00;;;;;;;;5003640;28;11264;-78
2022/03/11 08:58:58;;;;;;;;;8.00;8.00;;;;;;;;5021081;28;10166;-78
2022/03/11 09:01:25;;;;;;;;;6.25;6.25;;;;;;;;5026809;28;10847;-81
2022/03/11 09:03:52;;;;;;;;;13.00;8.25;;;;;;;;5024598;28;10055;-78
2022/03/11 09:06:20;;;;;;;;;7.75;7.75;;;;;;;;5021147;28;10133;-77
2022/03/11 09:08:47;;;;;;;;;7.00;7.00;;;;;;;;5028343;28;10356;-77
2022/03/11 09:11:15;;;;;;;;;5.25;5.25;;;;;;;;5030720;28;9817;-78
2022/03/11 09:13:43;;;;;;;;;4.75;4.75;;;;;;;;5025606;28;10002;-79
2022/03/11 09:16:12;;;;;;;;;6.50;6.50;;;;;;;;5025875;28;9831;-78
2022/03/11 09:18:39;;;;;;;;;8.00;5.50;;;;;;;;5026314;28;10660;-77
2022/03/11 09:21:07;;;;;;;;;7.00;7.00;;;;;;;;5002610;28;9683;-78
2022/03/11 09:23:34;;;;;;;;;7.25;7.25;;;;;;;;5021662;28;9702;-78
2022/03/11 09:26:01;;;;;;;;;6.00;6.00;;;;;;;;5020443;28;9774;-78
2022/03/11 09:28:31;;;;;;;;;8.25;6.00;;;;;;;;5026934;28;9722;-75
2022/03/11 09:30:58;;;;;;;;;9.25;7.75;;;;;;;;5031032;28;9555;-75
2022/03/11 09:33:27;;;;;;;;;7.75;7.75;;;;;;;;5025346;28;9534;-75
2022/03/11 09:35:55;;;;;;;;;7.67;7.67;;;;;;;;5024652;28;9564;-77
2022/03/11 09:38:22;;;;;;;;;6.67;6.33;;;;;;;;5021884;28;9425;-77
2022/03/11 09:40:52;;;;;;;;;6.00;6.00;;;;;;;;5024129;28;9280;-77
2022/03/11 09:43:20;;;;;;;;;6.67;6.67;;;;;;;;5021458;28;9218;-77
2022/03/11 09:45:48;;;;;;;;;10.67;8.00;;;;;;;;5019129;28;9353;-75
2022/03/11 09:48:16;;;;;;;;;6.33;6.33;;;;;;;;5023574;28;9367;-77
2022/03/11 09:50:45;;;;;;;;;8.00;8.00;;;;;;;;5019780;28;10089;-77
2022/03/11 09:53:13;;;;;;;;;9.00;6.33;;;;;;;;5003882;28;9443;-77
2022/03/11 09:55:41;;;;;;;;;9.33;7.67;;;;;;;;5020611;28;9107;-78
2022/03/11 09:58:08;;;;;;;;;9.33;6.67;;;;;;;;5022648;28;9289;-77
2022/03/11 10:00:36;;;;;;;;;7.33;4.67;;;;;;;;5023659;28;9221;-77
2022/03/11 10:03:04;;;;;;;;;7.00;7.00;;;;;;;;5022812;28;9452;-77
2022/03/11 10:05:50;;;;;;;;;9.00;7.75;;;;;;;;5020046;28;9334;-75
2022/03/11 10:08:18;;;;;;;;;5.67;4.00;;;;;;;;5023303;28;9432;-77
2022/03/11 10:10:45;;;;;;;;;5.00;5.00;;;;;;;;5017370;28;9380;-76
2022/03/11 10:13:13;;;;;;;;;6.67;6.33;;;;;;;;5005767;28;9370;-77
2022/03/11 10:15:41;;;;;;;;;7.67;7.67;;;;;;;;5025520;28;9377;-77
2022/03/11 10:18:10;;;;;;;;;5.67;5.00;;;;;;;;5023860;28;9354;-77
2022/03/11 10:20:38;;;;;;;;;4.67;4.67;;;;;;;;5024813;28;9423;-78
2022/03/11 10:23:15;;;;;;;;;5.67;5.00;;;;;;;;5024295;28;9332;-78
2022/03/11 10:25:43;;;;;;;;;8.00;7.67;;;;;;;;5024132;28;9412;-78
2022/03/11 10:28:12;;;;;;;;;6.33;6.33;;;;;;;;5030995;28;9165;-78
2022/03/11 10:30:41;;;;;;;;;8.00;5.67;;;;;;;;5023198;28;9188;-77
2022/03/11 10:33:10;;;;;;;;;6.67;6.67;;;;;;;;5025038;28;9299;-77
2022/03/11 10:35:39;;;;;;;;;8.33;8.33;;;;;;;;5024436;28;9112;-78
2022/03/11 10:38:11;;;;;;;;;6.33;4.33;;;;;;;;5024645;28;9190;-78
2022/03/11 10:40:42;;;;;;;;;6.00;6.00;;;;;;;;5024923;28;9368;-78
2022/03/11 10:43:12;;;;;;;;;7.67;5.00;;;;;;;;5023762;28;9190;-78
2022/03/11 10:45:47;;;;;;;;;4.67;4.67;;;;;;;;5024903;28;9200;-76
2022/03/11 10:48:14;;;;;;;;;6.67;6.33;;;;;;;;5023649;28;9206;-76
2022/03/11 10:50:41;;;;;;;;;5.33;5.33;;;;;;;;5024579;28;9287;-77
2022/03/11 10:53:10;;;;;;;;;8.67;8.67;;;;;;;;5024124;28;9326;-76
2022/03/11 10:55:39;;;;;;;;;6.33;4.67;;;;;;;;5023193;28;9276;-76
2022/03/11 10:58:08;;;;;;;;;6.67;6.33;;;;;;;;5023580;28;9256;-76
2022/03/11 11:00:38;;;;;;;;;7.00;7.00;;;;;;;;5022129;28;9280;-77
2022/03/11 11:03:07;;;;;;;;;10.00;6.67;;;;;;;;5024243;28;9280;-76
2022/03/11 11:05:35;;;;;;;;;9.33;5.33;;;;;;;;5028203;28;9309;-76
2022/03/11 11:08:06;;;;;;;;;5.00;5.00;;;;;;;;5023535;28;9290;-78
2022/03/11 11:10:38;;;;;;;;;4.00;4.00;;;;;;;;5021509;28;9245;-77
2022/03/11 11:13:17;;;;;;;;;11.33;6.00;;;;;;;;5023241;28;9219;-77
2022/03/11 11:15:47;;;;;;;;;8.00;8.00;;;;;;;;5023891;28;9202;-77
2022/03/11 11:18:21;;;;;;;;;3.00;3.00;;;;;;;;5021561;28;9089;-76
2022/03/11 11:20:52;;;;;;;;;9.00;5.00;;;;;;;;5014585;28;9239;-77
2022/03/11 11:23:19;;;;;;;;;3.00;3.00;;;;;;;;5021225;28;9020;-77
2022/03/11 11:25:49;;;;;;;;;9.00;6.00;;;;;;;;5023721;28;8905;-76
2022/03/11 11:28:20;;;;;;;;;7.33;7.33;;;;;;;;5022441;28;9026;-77
2022/03/11 11:30:48;;;;;;;;;6.00;6.00;;;;;;;;5021303;28;8899;-77
2022/03/11 11:33:18;;;;;;;;;6.00;6.00;;;;;;;;5021379;28;8881;-77
2022/03/11 11:35:46;;;;;;;;;6.00;6.00;;;;;;;;5022464;28;8892;-78
2022/03/11 11:38:34;;;;;;;;;5.75;5.50;;;;;;;;5023392;28;8961;-78
2022/03/11 11:41:06;;;;;;;;;6.50;5.50;;;;;;;;5020675;28;8865;-78
2022/03/11 11:43:35;;;;;;;;;6.00;6.00;;;;;;;;5019140;28;9005;-78
2022/03/11 11:46:08;;;;;;;;;6.00;6.00;;;;;;;;5021890;28;8981;-78
2022/03/11 11:49:01;;;;;;;;;8.50;6.25;;;;;;;;5014005;28;8884;-77
2022/03/11 11:51:57;;;;;;;;;5.25;5.25;;;;;;;;5013395;28;8856;-78
2022/03/11 11:54:44;;;;;;;;;7.50;5.50;;;;;;;;5021106;28;8846;-79
2022/03/11 11:57:25;;;;;;;;;7.75;4.75;;;;;;;;5020083;28;8885;-81
2022/03/11 11:59:55;;;;;;;;;6.50;6.50;;;;;;;;5000131;28;8955;-78
2022/03/11 12:02:36;;;;;;;;;6.00;6.00;;;;;;;;5020227;28;8807;-80
2022/03/11 12:05:42;;;;;;;;;5.00;5.00;;;;;;;;5023736;28;8869;-81
2022/03/11 12:08:11;;;;;;;;;4.25;4.25;;;;;;;;5023074;28;8869;-78
2022/03/11 12:10:51;;;;;;;;;5.00;4.75;;;;;;;;5023508;28;8862;-76
2022/03/11 12:13:36;;;;;;;;;3.50;3.50;;;;;;;;5032706;28;8889;-77
2022/03/11 12:16:17;;;;;;;;;4.00;4.00;;;;;;;;5017481;28;8902;-79
2022/03/11 12:18:46;;;;;;;;;4.00;4.00;;;;;;;;5024404;28;8848;-77
2022/03/11 12:21:40;;;;;;;;;4.75;4.75;;;;;;;;5025349;28;9000;-78
2022/03/11 12:24:32;;;;;;;;;3.00;3.00;;;;;;;;5014269;28;9750;-78
2022/03/11 12:27:00;;;;;;;;;4.75;3.25;;;;;;;;5021596;28;8858;-78
2022/03/11 12:29:32;;;;;;;;;2.00;2.00;;;;;;;;5029963;28;8870;-79
2022/03/11 12:32:02;;;;;;;;;4.00;4.00;;;;;;;;5016979;28;8935;-75
2022/03/11 12:34:31;;;;;;;;;3.33;3.33;;;;;;;;5024081;28;9042;-77
2022/03/11 12:36:58;;;;;;;;;4.33;4.33;;;;;;;;5036798;28;9090;-75
2022/03/11 12:39:29;;;;;;;;;5.00;5.00;;;;;;;;5020723;28;9103;-74
2022/03/11 12:41:57;;;;;;;;;7.33;5.00;;;;;;;;5023597;28;10166;-79
2022/03/11 12:44:27;;;;;;;;;4.00;4.00;;;;;;;;5010703;28;9446;-79
2022/03/11 12:46:57;;;;;;;;;4.00;4.00;;;;;;;;5012639;28;9287;-78
2022/03/11 12:49:36;;;;;;;;;7.25;7.25;;;;;;;;5034637;28;9335;-80
2022/03/11 12:52:26;;;;;;;;;4.75;4.75;;;;;;;;5020271;28;9482;-79
2022/03/11 12:54:54;;;;;;;;;8.50;5.25;;;;;;;;5002492;28;9619;-79
2022/03/11 12:57:22;;;;;;;;;5.00;5.00;;;;;;;;5042987;28;9595;-78
2022/03/11 12:59:49;;;;;;;;;4.00;4.00;;;;;;;;4993343;28;9561;-77
2022/03/11 13:02:17;;;;;;;;;5.00;5.00;;;;;;;;5003753;28;9427;-79
2022/03/11 13:04:47;;;;;;;;;5.00;5.00;;;;;;;;5022575;28;9726;-78
2022/03/11 13:07:25;;;;;;;;;5.00;5.00;;;;;;;;5022771;28;9551;-78
2022/03/11 13:10:17;;;;;;;;;4.75;4.75;;;;;;;;5024817;28;9555;-78
2022/03/11 13:12:46;;;;;;;;;4.00;4.00;;;;;;;;5023164;28;9615;-78
2022/03/11 13:15:16;;;;;;;;;6.50;6.50;;;;;;;;5026374;28;9732;-77
2022/03/11 13:17:47;;;;;;;;;6.50;5.00;;;;;;;;5024153;28;9709;-77
2022/03/11 13:20:31;;;;;;;;;9.00;4.75;;;;;;;;5023224;28;9583;-77
2022/03/11 13:22:59;;;;;;;;;3.75;3.75;;;;;;;;5024470;28;9726;-78
2022/03/11 13:25:29;;;;;;;;;4.75;4.75;;;;;;;;5022922;28;9622;-78
2022/03/11 13:27:59;;;;;;;;;5.25;4.50;;;;;;;;5024383;28;9718;-78
2022/03/11 13:30:34;;;;;;;;;4.75;4.75;;;;;;;;5023027;28;9770;-78
2022/03/11 13:33:12;;;;;;;;;3.00;3.00;;;;;;;;5026587;28;10505;-78
2022/03/11 13:35:41;;;;;;;;;3.50;3.00;;;;;;;;5037605;28;9671;-78
2022/03/11 13:38:09;;;;;;;;;3.50;3.50;;;;;;;;5007662;28;9719;-80
2022/03/11 13:40:37;;;;;;;;;3.00;3.00;;;;;;;;5031067;28;9561;-79
2022/03/11 13:43:08;;;;;;;;;3.00;3.00;;;;;;;;5025537;28;9587;-78
2022/03/11 13:45:37;;;;;;;;;2.25;2.25;;;;;;;;4998625;28;9778;-78
2022/03/11 13:48:09;;;;;;;;;3.75;3.75;;;;;;;;5005643;28;9602;-78
2022/03/11 13:50:36;;;;;;;;;7.75;3.75;;;;;;;;5014921;28;9772;-78
2022/03/11 13:53:07;;;;;;;;;4.00;4.00;;;;;;;;4995774;28;9575;-79
2022/03/11 13:55:36;;;;;;;;;3.75;2.00;;;;;;;;5003928;28;9657;-78
2022/03/11 13:58:18;;;;;;;;;3.00;3.00;;;;;;;;5006704;28;10249;-78
2022/03/11 14:00:45;;;;;;;;;8.00;3.50;;;;;;;;5005202;28;9677;-79
2022/03/11 14:03:29;;;;;;;;;2.75;2.75;;;;;;;;4988749;28;9772;-78
2022/03/11 14:06:02;;;;;;;;;4.50;3.25;;;;;;;;5006519;28;9819;-80
2022/03/11 14:08:31;;;;;;;;;1.00;1.00;;;;;;;;5006000;28;9803;-77
2022/03/11 14:11:04;;;;;;;;;4.00;4.00;;;;;;;;5000161;28;9654;-76
2022/03/11 14:13:35;;;;;;;;;2.25;2.25;;;;;;;;5004542;28;9814;-76
2022/03/11 14:16:10;;;;;;;;;4.25;4.25;;;;;;;;4988808;28;9607;-77
2022/03/11 14:18:39;;;;;;;;;4.25;2.50;;;;;;;;5005678;28;9657;-75
2022/03/11 14:21:09;;;;;;;;;4.00;4.00;;;;;;;;4990813;28;10481;-79
2022/03/11 14:23:39;;;;;;;;;3.00;3.00;;;;;;;;5005110;28;9540;-78
2022/03/11 14:26:10;;;;;;;;;4.75;4.75;;;;;;;;5005043;28;9665;-79
2022/03/11 14:28:37;;;;;;;;;4.75;4.75;;;;;;;;5006410;28;9643;-79
2022/03/11 14:31:05;;;;;;;;;5.00;5.00;;;;;;;;5003879;28;9661;-79
2022/03/11 14:33:34;;;;;;;;;5.25;4.25;;;;;;;;5006458;28;10577;-79
2022/03/11 14:36:01;;;;;;;;;4.00;4.00;;;;;;;;5005620;28;9583;-78
2022/03/11 14:38:29;;;;;;;;;7.00;7.00;;;;;;;;5005748;28;9707;-78
2022/03/11 14:40:58;;;;;;;;;5.00;5.00;;;;;;;;5008172;28;9943;-79
2022/03/11 14:43:25;;;;;;;;;4.50;4.50;;;;;;;;5019580;28;9559;-79
2022/03/11 14:45:52;;;;;;;;;5.25;3.25;;;;;;;;5007938;28;10476;-79